Time,TemperatureF,DewpointF,PressureIn,WindDirection,WindDirectionDegrees,WindSpeedMPH,WindSpeedGustMPH,Humidity,HourlyPrecipIn,Conditions,Clouds,dailyrainin,SoftwareType,DateUTC
2013-04-19 00:04:00,33.7,23.9,30.36,ESE,121,1.0,4.0,67,0.00,,,0.00,WeatherTracker,2013-04-19 07:04:00,
2013-04-19 00:09:00,33.4,24.0,30.36,ESE,121,0.0,3.0,68,0.00,,,0.00,WeatherTracker,2013-04-19 07:09:00,
2013-04-19 00:14:00,33.0,24.0,30.36,ESE,121,1.0,2.0,69,0.00,,,0.00,WeatherTracker,2013-04-19 07:14:00,
2013-04-19 00:19:00,32.8,24.4,30.36,ESE,121,1.0,2.0,71,0.00,,,0.00,WeatherTracker,2013-04-19 07:19:00,
2013-04-19 00:24:00,32.7,24.4,30.36,ESE,121,0.0,2.0,71,0.00,,,0.00,WeatherTracker,2013-04-19 07:24:00,
2013-04-19 00:29:00,32.9,24.2,30.36,ESE,121,0.0,0.0,70,0.00,,,0.00,WeatherTracker,2013-04-19 07:29:00,
2013-04-19 00:34:00,33.2,24.5,30.36,ESE,121,0.0,2.0,70,0.00,,,0.00,WeatherTracker,2013-04-19 07:34:00,
2013-04-19 00:39:00,33.4,24.7,30.36,ESE,121,0.0,2.0,70,0.00,,,0.00,WeatherTracker,2013-04-19 07:39:00,
2013-04-19 00:44:00,33.4,23.6,30.35,ESE,121,1.0,0.0,67,0.00,,,0.00,WeatherTracker,2013-04-19 07:44:00,
2013-04-19 00:49:00,33.4,23.6,30.35,ESE,121,2.0,2.0,67,0.00,,,0.00,WeatherTracker,2013-04-19 07:49:00,
2013-04-19 00:54:00,33.5,23.7,30.36,ESE,121,0.0,2.0,67,0.00,,,0.00,WeatherTracker,2013-04-19 07:54:00,
2013-04-19 00:59:00,33.9,23.0,30.35,ESE,121,2.0,2.0,64,0.00,,,0.00,WeatherTracker,2013-04-19 07:59:00,
2013-04-19 01:04:00,33.8,24.0,30.35,ESE,121,1.0,4.0,67,0.00,,,0.00,WeatherTracker,2013-04-19 08:04:00,
2013-04-19 01:09:00,33.3,24.2,30.35,ESE,121,1.0,4.0,69,0.00,,,0.00,WeatherTracker,2013-04-19 08:09:00,
2013-04-19 01:14:00,33.0,24.0,30.35,ESE,121,2.0,2.0,69,0.00,,,0.00,WeatherTracker,2013-04-19 08:14:00,
2013-04-19 01:19:00,32.8,24.1,30.35,ESE,121,0.0,2.0,70,0.00,,,0.00,WeatherTracker,2013-04-19 08:19:00,
2013-04-19 01:24:00,32.6,24.3,30.35,ESE,121,2.0,2.0,71,0.00,,,0.00,WeatherTracker,2013-04-19 08:24:00,
2013-04-19 01:29:00,32.5,23.8,30.35,ESE,122,3.0,3.0,70,0.00,,,0.00,WeatherTracker,2013-04-19 08:29:00,
2013-04-19 01:35:00,32.8,23.8,30.35,ESE,122,3.0,4.0,69,0.00,,,0.00,WeatherTracker,2013-04-19 08:35:00,
2013-04-19 01:40:00,33.8,24.4,30.35,South,178,4.0,5.0,68,0.00,,,0.00,WeatherTracker,2013-04-19 08:40:00,
2013-04-19 01:45:00,34.4,24.2,30.35,South,178,3.0,5.0,66,0.00,,,0.00,WeatherTracker,2013-04-19 08:45:00,
2013-04-19 01:50:00,34.6,24.4,30.35,North,360,4.0,6.0,66,0.00,,,0.00,WeatherTracker,2013-04-19 08:50:00,
2013-04-19 01:55:00,34.7,24.5,30.34,North,360,3.0,6.0,66,0.00,,,0.00,WeatherTracker,2013-04-19 08:55:00,
2013-04-19 02:00:00,35.1,24.5,30.34,North,360,4.0,5.0,65,0.00,,,0.00,WeatherTracker,2013-04-19 09:00:00,
2013-04-19 02:05:00,35.2,24.3,30.34,WSW,246,3.0,5.0,64,0.00,,,0.00,WeatherTracker,2013-04-19 09:05:00,
2013-04-19 02:10:00,34.4,24.9,30.34,WSW,248,2.0,5.0,68,0.00,,,0.00,WeatherTracker,2013-04-19 09:10:00,
2013-04-19 02:15:00,33.3,24.2,30.34,WSW,248,3.0,4.0,69,0.00,,,0.00,WeatherTracker,2013-04-19 09:15:00,
2013-04-19 02:20:00,32.8,24.1,30.34,North,360,0.0,4.0,70,0.00,,,0.00,WeatherTracker,2013-04-19 09:20:00,
2013-04-19 02:25:00,32.5,23.8,30.33,North,360,0.0,3.0,70,0.00,,,0.00,WeatherTracker,2013-04-19 09:25:00,
2013-04-19 02:30:00,32.5,24.8,30.33,North,360,0.0,0.0,73,0.00,,,0.00,WeatherTracker,2013-04-19 09:30:00,
2013-04-19 02:35:00,32.6,24.6,30.33,North,360,0.0,0.0,72,0.00,,,0.00,WeatherTracker,2013-04-19 09:35:00,
2013-04-19 02:40:00,32.3,23.3,30.33,North,360,0.0,3.0,69,0.00,,,0.00,WeatherTracker,2013-04-19 09:40:00,
2013-04-19 02:45:00,32.1,23.8,30.33,North,360,0.0,3.0,71,0.00,,,0.00,WeatherTracker,2013-04-19 09:45:00,
2013-04-19 02:50:00,32.0,23.7,30.33,North,360,1.0,0.0,71,0.00,,,0.00,WeatherTracker,2013-04-19 09:50:00,
2013-04-19 02:55:00,32.0,24.0,30.33,North,360,0.0,2.0,72,0.00,,,0.00,WeatherTracker,2013-04-19 09:55:00,
2013-04-19 03:00:00,31.8,23.5,30.33,North,360,0.0,2.0,71,0.00,,,0.00,WeatherTracker,2013-04-19 10:00:00,
2013-04-19 03:05:00,31.5,23.2,30.34,North,360,0.0,1.0,71,0.00,,,0.00,WeatherTracker,2013-04-19 10:05:00,
2013-04-19 03:10:00,31.1,23.5,30.33,North,360,0.0,2.0,73,0.00,,,0.00,WeatherTracker,2013-04-19 10:10:00,
2013-04-19 03:15:00,31.0,22.7,30.33,North,360,0.0,4.0,71,0.00,,,0.00,WeatherTracker,2013-04-19 10:15:00,
2013-04-19 03:20:00,30.9,22.6,30.33,North,360,3.0,4.0,71,0.00,,,0.00,WeatherTracker,2013-04-19 10:20:00,
2013-04-19 03:25:00,31.4,23.1,30.33,North,360,2.0,3.0,71,0.00,,,0.00,WeatherTracker,2013-04-19 10:25:00,
2013-04-19 03:30:00,32.0,22.3,30.33,North,360,2.0,3.0,67,0.00,,,0.00,WeatherTracker,2013-04-19 10:30:00,
2013-04-19 03:35:00,32.3,22.6,30.34,North,360,0.0,3.0,67,0.00,,,0.00,WeatherTracker,2013-04-19 10:35:00,
2013-04-19 03:40:00,32.3,22.9,30.34,North,360,0.0,2.0,68,0.00,,,0.00,WeatherTracker,2013-04-19 10:40:00,
2013-04-19 03:45:00,31.7,22.4,30.33,WSW,242,0.0,1.0,68,0.00,,,0.00,WeatherTracker,2013-04-19 10:45:00,
2013-04-19 03:50:00,31.0,22.4,30.33,WSW,242,0.0,0.0,70,0.00,,,0.00,WeatherTracker,2013-04-19 10:50:00,
2013-04-19 03:55:00,30.9,22.3,30.33,WSW,242,0.0,0.0,70,0.00,,,0.00,WeatherTracker,2013-04-19 10:55:00,
2013-04-19 04:00:00,31.3,22.3,30.33,WSW,242,0.0,0.0,69,0.00,,,0.00,WeatherTracker,2013-04-19 11:00:00,
2013-04-19 04:05:00,31.3,22.3,30.33,North,360,0.0,0.0,69,0.00,,,0.00,WeatherTracker,2013-04-19 11:05:00,
2013-04-19 04:10:00,31.3,22.3,30.33,North,360,3.0,4.0,69,0.00,,,0.00,WeatherTracker,2013-04-19 11:10:00,
2013-04-19 04:15:00,31.1,22.1,30.33,North,360,2.0,4.0,69,0.00,,,0.00,WeatherTracker,2013-04-19 11:15:00,
2013-04-19 04:20:00,31.9,22.6,30.33,WSW,240,1.0,4.0,68,0.00,,,0.00,WeatherTracker,2013-04-19 11:20:00,
2013-04-19 04:25:00,32.1,22.4,30.33,WSW,240,1.0,3.0,67,0.00,,,0.00,WeatherTracker,2013-04-19 11:25:00,
2013-04-19 04:30:00,31.4,22.4,30.33,North,360,0.0,3.0,69,0.00,,,0.00,WeatherTracker,2013-04-19 11:30:00,
2013-04-19 04:36:00,30.4,21.8,30.33,WSW,242,1.0,2.0,70,0.00,,,0.00,WeatherTracker,2013-04-19 11:36:00,
2013-04-19 04:41:00,29.6,21.7,30.33,North,360,2.0,2.0,72,0.00,,,0.00,WeatherTracker,2013-04-19 11:41:00,
2013-04-19 04:46:00,29.5,22.3,30.33,North,360,0.0,3.0,74,0.00,,,0.00,WeatherTracker,2013-04-19 11:46:00,
2013-04-19 04:51:00,29.5,22.3,30.33,WSW,242,1.0,3.0,74,0.00,,,0.00,WeatherTracker,2013-04-19 11:51:00,
2013-04-19 04:56:00,29.3,22.1,30.33,North,360,0.0,2.0,74,0.00,,,0.00,WeatherTracker,2013-04-19 11:56:00,
2013-04-19 05:01:00,29.0,22.7,30.33,WSW,240,0.0,2.0,77,0.00,,,0.00,WeatherTracker,2013-04-19 12:01:00,
2013-04-19 05:06:00,28.6,22.9,30.33,North,360,0.0,2.0,79,0.00,,,0.00,WeatherTracker,2013-04-19 12:06:00,
2013-04-19 05:11:00,28.4,22.7,30.33,North,360,0.0,2.0,79,0.00,,,0.00,WeatherTracker,2013-04-19 12:11:00,
2013-04-19 05:16:00,28.3,22.9,30.33,North,360,0.0,0.0,80,0.00,,,0.00,WeatherTracker,2013-04-19 12:16:00,
2013-04-19 05:21:00,28.4,22.7,30.33,WSW,240,3.0,0.0,79,0.00,,,0.00,WeatherTracker,2013-04-19 12:21:00,
2013-04-19 05:26:00,28.8,21.9,30.33,WSW,241,1.0,3.0,75,0.00,,,0.00,WeatherTracker,2013-04-19 12:26:00,
2013-04-19 05:31:00,28.9,21.7,30.32,WSW,241,2.0,3.0,74,0.00,,,0.00,WeatherTracker,2013-04-19 12:31:00,
2013-04-19 05:36:00,28.5,21.3,30.32,WSW,241,1.0,3.0,74,0.00,,,0.00,WeatherTracker,2013-04-19 12:36:00,
2013-04-19 05:41:00,27.8,20.6,30.32,WSW,241,0.0,3.0,74,0.00,,,0.00,WeatherTracker,2013-04-19 12:41:00,
2013-04-19 05:46:00,27.7,20.5,30.32,WSW,241,0.0,2.0,74,0.00,,,0.00,WeatherTracker,2013-04-19 12:46:00,
2013-04-19 05:51:00,27.7,21.4,30.32,WSW,241,0.0,1.0,77,0.00,,,0.00,WeatherTracker,2013-04-19 12:51:00,
2013-04-19 05:56:00,27.7,21.8,30.32,WSW,241,0.0,1.0,78,0.00,,,0.00,WeatherTracker,2013-04-19 12:56:00,
2013-04-19 06:01:00,27.8,21.8,30.32,WSW,241,0.0,0.0,78,0.00,,,0.00,WeatherTracker,2013-04-19 13:01:00,
2013-04-19 06:06:00,27.5,21.6,30.32,South,178,1.0,4.0,78,0.00,,,0.00,WeatherTracker,2013-04-19 13:06:00,
2013-04-19 06:12:00,27.5,21.6,30.32,South,178,3.0,4.0,78,0.00,,,0.00,WeatherTracker,2013-04-19 13:12:00,
2013-04-19 06:17:00,27.6,21.7,30.32,South,178,0.0,4.0,78,0.00,,,0.00,WeatherTracker,2013-04-19 13:17:00,
2013-04-19 06:22:00,27.6,21.7,30.32,South,178,0.0,4.0,78,0.00,,,0.00,WeatherTracker,2013-04-19 13:22:00,
2013-04-19 06:27:00,27.7,21.8,30.32,South,178,0.0,2.0,78,0.00,,,0.00,WeatherTracker,2013-04-19 13:27:00,
2013-04-19 06:32:00,27.8,21.8,30.32,South,178,0.0,1.0,78,0.00,,,0.00,WeatherTracker,2013-04-19 13:32:00,
2013-04-19 06:37:00,27.9,22.2,30.32,South,178,0.0,1.0,79,0.00,,,0.00,WeatherTracker,2013-04-19 13:37:00,
2013-04-19 06:42:00,28.0,22.3,30.32,South,178,0.0,0.0,79,0.00,,,0.00,WeatherTracker,2013-04-19 13:42:00,
2013-04-19 06:47:00,28.2,22.5,30.32,South,178,0.0,0.0,79,0.00,,,0.00,WeatherTracker,2013-04-19 13:47:00,
2013-04-19 06:52:00,28.3,22.6,30.32,South,178,0.0,0.0,79,0.00,,,0.00,WeatherTracker,2013-04-19 13:52:00,
2013-04-19 06:57:00,28.3,22.9,30.32,South,178,0.0,0.0,80,0.00,,,0.00,WeatherTracker,2013-04-19 13:57:00,
2013-04-19 07:02:00,28.4,22.4,30.33,South,178,0.0,0.0,78,0.00,,,0.00,WeatherTracker,2013-04-19 14:02:00,
2013-04-19 07:07:00,28.9,22.6,30.33,South,178,0.0,0.0,77,0.00,,,0.00,WeatherTracker,2013-04-19 14:07:00,
2013-04-19 07:12:00,29.3,22.7,30.32,South,178,0.0,0.0,76,0.00,,,0.00,WeatherTracker,2013-04-19 14:12:00,
2013-04-19 07:17:00,29.9,24.2,30.32,South,178,0.0,0.0,79,0.00,,,0.00,WeatherTracker,2013-04-19 14:17:00,
2013-04-19 07:22:00,30.5,23.9,30.32,South,178,0.0,0.0,76,0.00,,,0.00,WeatherTracker,2013-04-19 14:22:00,
2013-04-19 07:27:00,31.1,23.8,30.32,South,178,0.0,0.0,74,0.00,,,0.00,WeatherTracker,2013-04-19 14:27:00,
2013-04-19 07:32:00,31.5,24.2,30.32,South,178,0.0,0.0,74,0.00,,,0.00,WeatherTracker,2013-04-19 14:32:00,
2013-04-19 07:37:00,31.9,24.9,30.32,South,178,0.0,0.0,75,0.00,,,0.00,WeatherTracker,2013-04-19 14:37:00,
2013-04-19 07:42:00,32.4,24.4,30.31,South,179,2.0,2.0,72,0.00,,,0.00,WeatherTracker,2013-04-19 14:42:00,
2013-04-19 07:47:00,33.2,25.5,30.31,South,179,0.0,3.0,73,0.00,,,0.00,WeatherTracker,2013-04-19 14:47:00,
2013-04-19 07:52:00,34.4,26.7,30.32,South,180,2.0,3.0,73,0.00,,,0.00,WeatherTracker,2013-04-19 14:52:00,
2013-04-19 07:57:00,35.3,26.9,30.31,South,179,1.0,3.0,71,0.00,,,0.00,WeatherTracker,2013-04-19 14:57:00,
2013-04-19 08:02:00,35.9,27.1,30.31,South,179,1.0,3.0,70,0.00,,,0.00,WeatherTracker,2013-04-19 15:02:00,
2013-04-19 08:07:00,36.0,26.8,30.31,South,180,1.0,3.0,69,0.00,,,0.00,WeatherTracker,2013-04-19 15:07:00,
2013-04-19 08:12:00,36.2,27.4,30.31,South,180,1.0,2.0,70,0.00,,,0.00,WeatherTracker,2013-04-19 15:12:00,
2013-04-19 08:17:00,36.4,27.6,30.31,South,179,0.0,2.0,70,0.00,,,0.00,WeatherTracker,2013-04-19 15:17:00,
2013-04-19 08:22:00,36.8,28.3,30.31,South,179,1.0,2.0,71,0.00,,,0.00,WeatherTracker,2013-04-19 15:22:00,
2013-04-19 08:28:00,37.4,28.2,30.30,South,179,0.0,2.0,69,0.00,,,0.00,WeatherTracker,2013-04-19 15:28:00,
2013-04-19 08:33:00,38.4,26.9,30.30,South,180,1.0,2.0,63,0.00,,,0.00,WeatherTracker,2013-04-19 15:33:00,
2013-04-19 08:38:00,38.7,28.0,30.30,South,182,3.0,3.0,65,0.00,,,0.00,WeatherTracker,2013-04-19 15:38:00,
2013-04-19 08:43:00,38.9,28.2,30.30,South,182,3.0,4.0,65,0.00,,,0.00,WeatherTracker,2013-04-19 15:43:00,
2013-04-19 08:48:00,39.2,28.8,30.30,South,183,1.0,4.0,66,0.00,,,0.00,WeatherTracker,2013-04-19 15:48:00,
2013-04-19 08:53:00,40.4,27.2,30.30,South,184,1.0,4.0,59,0.00,,,0.00,WeatherTracker,2013-04-19 15:53:00,
2013-04-19 08:58:00,41.9,29.0,30.29,South,182,3.0,4.0,60,0.00,,,0.00,WeatherTracker,2013-04-19 15:58:00,
2013-04-19 09:03:00,42.9,29.2,30.29,South,184,3.0,4.0,58,0.00,,,0.00,WeatherTracker,2013-04-19 16:03:00,
2013-04-19 09:08:00,43.6,28.5,30.29,WSW,252,0.0,5.0,55,0.00,,,0.00,WeatherTracker,2013-04-19 16:08:00,
2013-04-19 09:13:00,44.3,27.8,30.29,WSW,253,0.0,5.0,52,0.00,,,0.00,WeatherTracker,2013-04-19 16:13:00,
2013-04-19 09:18:00,45.3,27.8,30.28,WSW,254,0.0,4.0,50,0.00,,,0.00,WeatherTracker,2013-04-19 16:18:00,
2013-04-19 09:23:00,46.0,30.3,30.28,WSW,254,2.0,3.0,54,0.00,,,0.00,WeatherTracker,2013-04-19 16:23:00,
2013-04-19 09:28:00,46.7,29.5,30.28,North,360,0.0,2.0,51,0.00,,,0.00,WeatherTracker,2013-04-19 16:28:00,
2013-04-19 09:33:00,47.2,29.5,30.28,WSW,254,2.0,2.0,50,0.00,,,0.00,WeatherTracker,2013-04-19 16:33:00,
2013-04-19 09:38:00,47.3,28.6,30.28,North,355,0.0,5.0,48,0.00,,,0.00,WeatherTracker,2013-04-19 16:38:00,
2013-04-19 09:43:00,47.5,29.3,30.27,North,355,0.0,5.0,49,0.00,,,0.00,WeatherTracker,2013-04-19 16:43:00,
2013-04-19 09:48:00,48.2,31.9,30.27,North,9,3.0,5.0,53,0.00,,,0.00,WeatherTracker,2013-04-19 16:48:00,
2013-04-19 09:53:00,49.0,29.7,30.28,North,360,0.0,5.0,47,0.00,,,0.00,WeatherTracker,2013-04-19 16:53:00,
2013-04-19 09:58:00,49.9,30.0,30.27,North,360,0.0,5.0,46,0.00,,,0.00,WeatherTracker,2013-04-19 16:58:00,
2013-04-19 10:03:00,50.3,30.3,30.27,North,360,1.0,4.0,46,0.00,,,0.00,WeatherTracker,2013-04-19 17:03:00,
2013-04-19 10:08:00,50.8,30.2,30.27,North,360,1.0,4.0,45,0.00,,,0.00,WeatherTracker,2013-04-19 17:08:00,
2013-04-19 10:13:00,51.6,30.4,30.27,ENE,70,0.0,4.0,44,0.00,,,0.00,WeatherTracker,2013-04-19 17:13:00,
2013-04-19 10:18:00,52.1,30.3,30.27,ENE,70,2.0,4.0,43,0.00,,,0.00,WeatherTracker,2013-04-19 17:18:00,
2013-04-19 10:23:00,53.1,29.4,30.26,ENE,70,0.0,4.0,40,0.00,,,0.00,WeatherTracker,2013-04-19 17:23:00,
2013-04-19 10:28:00,53.3,29.0,30.26,ENE,70,0.0,2.0,39,0.00,,,0.00,WeatherTracker,2013-04-19 17:28:00,
2013-04-19 10:33:00,54.1,30.9,30.26,ENE,70,0.0,1.0,41,0.00,,,0.00,WeatherTracker,2013-04-19 17:33:00,
2013-04-19 10:38:00,54.4,31.8,30.25,ENE,69,0.0,4.0,42,0.00,,,0.00,WeatherTracker,2013-04-19 17:38:00,
2013-04-19 10:43:00,55.1,30.6,30.25,ENE,69,0.0,4.0,39,0.00,,,0.00,WeatherTracker,2013-04-19 17:43:00,
2013-04-19 10:48:00,55.8,32.5,30.25,ENE,69,2.0,3.0,41,0.00,,,0.00,WeatherTracker,2013-04-19 17:48:00,
2013-04-19 10:53:00,56.2,30.3,30.24,ENE,71,2.0,3.0,37,0.00,,,0.00,WeatherTracker,2013-04-19 17:53:00,
2013-04-19 10:59:00,56.5,31.8,30.24,ENE,71,4.0,4.0,39,0.00,,,0.00,WeatherTracker,2013-04-19 17:59:00,
2013-04-19 11:04:00,56.1,30.8,30.24,ENE,71,0.0,6.0,38,0.00,,,0.00,WeatherTracker,2013-04-19 18:04:00,
2013-04-19 11:09:00,56.3,33.5,30.24,ENE,71,5.0,6.0,42,0.00,,,0.00,WeatherTracker,2013-04-19 18:09:00,
2013-04-19 11:14:00,56.7,34.5,30.24,ENE,71,3.0,6.0,43,0.00,,,0.00,WeatherTracker,2013-04-19 18:14:00,
2013-04-19 11:19:00,57.0,32.9,30.24,ENE,71,0.0,6.0,40,0.00,,,0.00,WeatherTracker,2013-04-19 18:19:00,
2013-04-19 11:24:00,57.8,31.7,30.24,ENE,72,0.0,5.0,37,0.00,,,0.00,WeatherTracker,2013-04-19 18:24:00,
2013-04-19 11:29:00,58.5,33.6,30.23,ENE,72,2.0,4.0,39,0.00,,,0.00,WeatherTracker,2013-04-19 18:29:00,
2013-04-19 11:34:00,59.0,33.4,30.23,ENE,72,3.0,4.0,38,0.00,,,0.00,WeatherTracker,2013-04-19 18:34:00,
2013-04-19 11:39:00,59.0,34.1,30.23,ENE,72,1.0,5.0,39,0.00,,,0.00,WeatherTracker,2013-04-19 18:39:00,
2013-04-19 11:44:00,59.3,32.4,30.23,ENE,72,4.0,5.0,36,0.00,,,0.00,WeatherTracker,2013-04-19 18:44:00,
2013-04-19 11:49:00,59.1,30.0,30.22,NE,55,4.0,5.0,33,0.00,,,0.00,WeatherTracker,2013-04-19 18:49:00,
2013-04-19 11:54:00,59.4,36.9,30.22,NE,54,3.0,7.0,43,0.00,,,0.00,WeatherTracker,2013-04-19 18:54:00,
2013-04-19 11:59:00,59.9,32.2,30.21,NE,44,0.0,7.0,35,0.00,,,0.00,WeatherTracker,2013-04-19 18:59:00,
2013-04-19 12:04:00,60.0,33.0,30.21,NE,44,0.0,6.0,36,0.00,,,0.00,WeatherTracker,2013-04-19 19:04:00,
2013-04-19 12:09:00,63.1,28.6,30.20,WNW,295,2.0,6.0,27,0.00,,,0.00,WeatherTracker,2013-04-19 19:09:00,
2013-04-19 12:14:00,63.2,29.6,30.20,West,259,1.0,6.0,28,0.00,,,0.00,WeatherTracker,2013-04-19 19:14:00,
2013-04-19 12:19:00,63.4,29.7,30.19,West,268,5.0,6.0,28,0.00,,,0.00,WeatherTracker,2013-04-19 19:19:00,
2013-04-19 12:24:00,63.6,31.6,30.19,NW,310,3.0,6.0,30,0.00,,,0.00,WeatherTracker,2013-04-19 19:24:00,
2013-04-19 12:29:00,64.2,32.1,30.19,WNW,286,3.0,7.0,30,0.00,,,0.00,WeatherTracker,2013-04-19 19:29:00,
2013-04-19 12:34:00,64.3,32.2,30.18,West,263,4.0,7.0,30,0.00,,,0.00,WeatherTracker,2013-04-19 19:34:00,
2013-04-19 12:39:00,64.5,30.7,30.18,SW,236,6.0,7.0,28,0.00,,,0.00,WeatherTracker,2013-04-19 19:39:00,
2013-04-19 12:45:00,67.1,36.3,30.18,NNE,22,3.0,11.0,32,0.00,,,0.00,WeatherTracker,2013-04-19 19:45:00,
2013-04-19 12:50:00,67.1,31.1,30.17,NW,311,9.0,11.0,26,0.00,,,0.00,WeatherTracker,2013-04-19 19:50:00,
2013-04-19 12:55:00,65.7,32.6,30.17,West,267,2.0,11.0,29,0.00,,,0.00,WeatherTracker,2013-04-19 19:55:00,
2013-04-19 13:00:00,66.1,32.0,30.17,NW,313,4.0,10.0,28,0.00,,,0.00,WeatherTracker,2013-04-19 20:00:00,
2013-04-19 13:05:00,66.6,32.5,30.18,NW,314,5.0,7.0,28,0.00,,,0.00,WeatherTracker,2013-04-19 20:05:00,
2013-04-19 13:10:00,66.7,31.7,30.17,WNW,300,4.0,7.0,27,0.00,,,0.00,WeatherTracker,2013-04-19 20:10:00,
2013-04-19 13:15:00,66.4,33.2,30.17,ESE,123,3.0,15.0,29,0.00,,,0.00,WeatherTracker,2013-04-19 20:15:00,
2013-04-19 13:20:00,65.4,31.4,30.17,SW,230,9.0,17.0,28,0.00,,,0.00,WeatherTracker,2013-04-19 20:20:00,
2013-04-19 13:25:00,65.1,31.2,30.17,SSE,165,11.0,20.0,28,0.00,,,0.00,WeatherTracker,2013-04-19 20:25:00,
2013-04-19 13:30:00,65.6,31.6,30.16,SW,226,16.0,25.0,28,0.00,,,0.00,WeatherTracker,2013-04-19 20:30:00,
2013-04-19 13:35:00,66.2,32.1,30.15,East,83,19.0,25.0,28,0.00,,,0.00,WeatherTracker,2013-04-19 20:35:00,
2013-04-19 13:40:00,65.4,32.3,30.15,SSE,157,12.0,31.0,29,0.00,,,0.00,WeatherTracker,2013-04-19 20:40:00,
2013-04-19 13:45:00,65.9,31.0,30.15,West,265,4.0,31.0,27,0.00,,,0.00,WeatherTracker,2013-04-19 20:45:00,
2013-04-19 13:50:00,66.0,33.7,30.15,SSE,158,5.0,14.0,30,0.00,,,0.00,WeatherTracker,2013-04-19 20:50:00,
2013-04-19 13:55:00,66.5,29.6,30.14,NNW,327,6.0,13.0,25,0.00,,,0.00,WeatherTracker,2013-04-19 20:55:00,
2013-04-19 14:00:00,66.5,34.1,30.14,SE,126,12.0,12.0,30,0.00,,,0.00,WeatherTracker,2013-04-19 21:00:00,
2013-04-19 14:05:00,66.1,33.8,30.14,South,171,9.0,18.0,30,0.00,,,0.00,WeatherTracker,2013-04-19 21:05:00,
2013-04-19 14:10:00,66.2,32.1,30.14,WSW,258,5.0,18.0,28,0.00,,,0.00,WeatherTracker,2013-04-19 21:10:00,
2013-04-19 14:16:00,66.4,30.5,30.14,SW,221,2.0,18.0,26,0.00,,,0.00,WeatherTracker,2013-04-19 21:16:00,
2013-04-19 14:20:00,66.0,32.8,30.14,SSE,148,9.0,16.0,29,0.00,,,0.00,WeatherTracker,2013-04-19 21:20:00,
2013-04-19 14:26:00,65.8,32.7,30.14,SSW,197,11.0,20.0,29,0.00,,,0.00,WeatherTracker,2013-04-19 21:26:00,
2013-04-19 14:31:00,65.4,32.3,30.13,SSE,148,10.0,20.0,29,0.00,,,0.00,WeatherTracker,2013-04-19 21:31:00,
2013-04-19 14:36:00,65.4,32.3,30.13,SSW,213,14.0,18.0,29,0.00,,,0.00,WeatherTracker,2013-04-19 21:36:00,
2013-04-19 14:41:00,65.9,31.9,30.12,South,175,3.0,24.0,28,0.00,,,0.00,WeatherTracker,2013-04-19 21:41:00,
2013-04-19 14:46:00,66.2,33.8,30.11,SW,222,12.0,24.0,30,0.00,,,0.00,WeatherTracker,2013-04-19 21:46:00,
2013-04-19 14:51:00,65.6,32.5,30.11,SSE,152,7.0,27.0,29,0.00,,,0.00,WeatherTracker,2013-04-19 21:51:00,
2013-04-19 14:56:00,65.8,33.5,30.11,South,178,5.0,27.0,30,0.00,,,0.00,WeatherTracker,2013-04-19 21:56:00,
2013-04-19 15:01:00,66.1,32.9,30.11,West,267,4.0,18.0,29,0.00,,,0.00,WeatherTracker,2013-04-19 22:01:00,
2013-04-19 15:06:00,66.9,32.7,30.11,SSW,192,4.0,10.0,28,0.00,,,0.00,WeatherTracker,2013-04-19 22:06:00,
2013-04-19 15:11:00,66.9,31.8,30.10,SSE,160,5.0,17.0,27,0.00,,,0.00,WeatherTracker,2013-04-19 22:11:00,
2013-04-19 15:16:00,66.7,31.7,30.09,SSW,207,11.0,26.0,27,0.00,,,0.00,WeatherTracker,2013-04-19 22:16:00,
2013-04-19 15:21:00,66.7,32.6,30.10,SSE,152,0.0,26.0,28,0.00,,,0.00,WeatherTracker,2013-04-19 22:21:00,
2013-04-19 15:26:00,67.5,35.8,30.10,SE,131,5.0,14.0,31,0.00,,,0.00,WeatherTracker,2013-04-19 22:26:00,
2013-04-19 15:31:00,66.7,34.3,30.09,SSW,213,9.0,24.0,30,0.00,,,0.00,WeatherTracker,2013-04-19 22:31:00,
2013-04-19 15:36:00,66.0,31.1,30.09,SSE,159,6.0,24.0,27,0.00,,,0.00,WeatherTracker,2013-04-19 22:36:00,
2013-04-19 15:41:00,66.3,34.8,30.10,SSW,213,15.0,23.0,31,0.00,,,0.00,WeatherTracker,2013-04-19 22:41:00,
2013-04-19 15:46:00,66.4,34.8,30.09,SSE,164,13.0,21.0,31,0.00,,,0.00,WeatherTracker,2013-04-19 22:46:00,
2013-04-19 15:52:00,66.1,30.2,30.09,SSE,150,15.0,21.0,26,0.00,,,0.00,WeatherTracker,2013-04-19 22:52:00,
2013-04-19 15:57:00,66.1,33.8,30.09,SSW,205,2.0,20.0,30,0.00,,,0.00,WeatherTracker,2013-04-19 22:57:00,
2013-04-19 16:02:00,66.3,33.1,30.08,SSW,213,2.0,18.0,29,0.00,,,0.00,WeatherTracker,2013-04-19 23:02:00,
2013-04-19 16:07:00,66.4,33.2,30.08,SE,142,3.0,18.0,29,0.00,,,0.00,WeatherTracker,2013-04-19 23:07:00,
2013-04-19 16:12:00,66.6,34.2,30.08,SSW,196,11.0,12.0,30,0.00,,,0.00,WeatherTracker,2013-04-19 23:12:00,
2013-04-19 16:17:00,66.5,34.1,30.08,SE,144,7.0,15.0,30,0.00,,,0.00,WeatherTracker,2013-04-19 23:17:00,
2013-04-19 16:22:00,66.1,33.8,30.07,SSE,155,10.0,19.0,30,0.00,,,0.00,WeatherTracker,2013-04-19 23:22:00,
2013-04-19 16:27:00,66.1,33.8,30.08,SSW,207,13.0,19.0,30,0.00,,,0.00,WeatherTracker,2013-04-19 23:27:00,
2013-04-19 16:32:00,66.3,32.2,30.08,SSE,150,9.0,19.0,28,0.00,,,0.00,WeatherTracker,2013-04-19 23:32:00,
2013-04-19 16:37:00,66.1,33.8,30.07,SE,125,12.0,18.0,30,0.00,,,0.00,WeatherTracker,2013-04-19 23:37:00,
2013-04-19 16:42:00,65.9,34.4,30.08,SE,128,7.0,19.0,31,0.00,,,0.00,WeatherTracker,2013-04-19 23:42:00,
2013-04-19 16:47:00,66.1,33.8,30.08,SE,140,13.0,19.0,30,0.00,,,0.00,WeatherTracker,2013-04-19 23:47:00,
2013-04-19 16:52:00,66.2,34.7,30.08,South,188,7.0,14.0,31,0.00,,,0.00,WeatherTracker,2013-04-19 23:52:00,
2013-04-19 16:57:00,65.7,33.4,30.08,SE,142,8.0,18.0,30,0.00,,,0.00,WeatherTracker,2013-04-19 23:57:00,
2013-04-19 17:02:00,65.1,33.7,30.08,South,176,10.0,18.0,31,0.00,,,0.00,WeatherTracker,2013-04-20 00:02:00,
2013-04-19 17:07:00,64.7,34.9,30.08,South,173,7.0,17.0,33,0.00,,,0.00,WeatherTracker,2013-04-20 00:07:00,
2013-04-19 17:12:00,64.8,35.0,30.08,SW,232,6.0,19.0,33,0.00,,,0.00,WeatherTracker,2013-04-20 00:12:00,
2013-04-19 17:17:00,65.1,34.5,30.08,SSW,192,2.0,19.0,32,0.00,,,0.00,WeatherTracker,2013-04-20 00:17:00,
2013-04-19 17:22:00,65.4,34.0,30.07,ESE,121,2.0,9.0,31,0.00,,,0.00,WeatherTracker,2013-04-20 00:22:00,
2013-04-19 17:27:00,65.2,33.8,30.07,South,180,12.0,12.0,31,0.00,,,0.00,WeatherTracker,2013-04-20 00:27:00,
2013-04-19 17:33:00,64.7,32.5,30.07,SE,134,6.0,23.0,30,0.00,,,0.00,WeatherTracker,2013-04-20 00:33:00,
2013-04-19 17:38:00,64.8,32.6,30.07,West,267,3.0,23.0,30,0.00,,,0.00,WeatherTracker,2013-04-20 00:38:00,
2013-04-19 17:43:00,64.9,33.5,30.07,East,99,15.0,15.0,31,0.00,,,0.00,WeatherTracker,2013-04-20 00:43:00,
2013-04-19 17:48:00,64.3,33.8,30.07,SE,142,5.0,16.0,32,0.00,,,0.00,WeatherTracker,2013-04-20 00:48:00,
2013-04-19 17:53:00,64.0,34.3,30.07,SSE,147,9.0,16.0,33,0.00,,,0.00,WeatherTracker,2013-04-20 00:53:00,
2013-04-19 17:58:00,64.2,32.1,30.07,SSW,203,5.0,14.0,30,0.00,,,0.00,WeatherTracker,2013-04-20 00:58:00,
2013-04-19 18:03:00,64.5,33.2,30.07,ESE,118,9.0,11.0,31,0.00,,,0.00,WeatherTracker,2013-04-20 01:03:00,
2013-04-19 18:08:00,63.4,33.0,30.07,SE,130,4.0,14.0,32,0.00,,,0.00,WeatherTracker,2013-04-20 01:08:00,
2013-04-19 18:13:00,63.3,32.9,30.07,ESE,102,1.0,14.0,32,0.00,,,0.00,WeatherTracker,2013-04-20 01:13:00,
2013-04-19 18:18:00,63.8,32.6,30.07,WSW,238,0.0,12.0,31,0.00,,,0.00,WeatherTracker,2013-04-20 01:18:00,
2013-04-19 18:23:00,63.0,34.2,30.07,SSE,152,10.0,10.0,34,0.00,,,0.00,WeatherTracker,2013-04-20 01:23:00,
2013-04-19 18:28:00,61.8,33.1,30.07,SSE,157,11.0,17.0,34,0.00,,,0.00,WeatherTracker,2013-04-20 01:28:00,
2013-04-19 18:33:00,61.6,33.0,30.07,SSE,161,14.0,22.0,34,0.00,,,0.00,WeatherTracker,2013-04-20 01:33:00,
2013-04-19 18:38:00,61.2,32.6,30.07,SSE,163,9.0,22.0,34,0.00,,,0.00,WeatherTracker,2013-04-20 01:38:00,
2013-04-19 18:43:00,60.5,32.7,30.07,South,169,4.0,15.0,35,0.00,,,0.00,WeatherTracker,2013-04-20 01:43:00,
2013-04-19 18:48:00,60.2,33.1,30.07,SE,144,0.0,15.0,36,0.00,,,0.00,WeatherTracker,2013-04-20 01:48:00,
2013-04-19 18:53:00,59.7,34.1,30.07,SSE,153,9.0,10.0,38,0.00,,,0.00,WeatherTracker,2013-04-20 01:53:00,
2013-04-19 18:58:00,59.3,33.7,30.07,ESE,116,1.0,11.0,38,0.00,,,0.00,WeatherTracker,2013-04-20 01:58:00,
2013-04-19 19:03:00,59.1,33.5,30.07,SSW,196,19.0,19.0,38,0.00,,,0.00,WeatherTracker,2013-04-20 02:03:00,
2013-04-19 19:08:00,59.1,32.9,30.07,SSE,163,4.0,19.0,37,0.00,,,0.00,WeatherTracker,2013-04-20 02:08:00,
2013-04-19 19:13:00,59.0,34.1,30.07,SE,140,5.0,19.0,39,0.00,,,0.00,WeatherTracker,2013-04-20 02:13:00,
2013-04-19 19:18:00,59.0,33.4,30.07,SE,129,5.0,16.0,38,0.00,,,0.00,WeatherTracker,2013-04-20 02:18:00,
2013-04-19 19:23:00,58.1,31.3,30.07,SE,145,0.0,10.0,36,0.00,,,0.00,WeatherTracker,2013-04-20 02:23:00,
2013-04-19 19:28:00,58.3,31.5,30.07,East,94,0.0,5.0,36,0.00,,,0.00,WeatherTracker,2013-04-20 02:28:00,
2013-04-19 19:33:00,58.4,31.6,30.08,NNE,31,0.0,0.0,36,0.00,,,0.00,WeatherTracker,2013-04-20 02:33:00,
2013-04-19 19:38:00,58.0,31.2,30.07,NNE,31,0.0,0.0,36,0.00,,,0.00,WeatherTracker,2013-04-20 02:38:00,
2013-04-19 19:43:00,57.3,30.6,30.08,NNE,31,0.0,0.0,36,0.00,,,0.00,WeatherTracker,2013-04-20 02:43:00,
2013-04-19 19:48:00,57.7,30.2,30.08,ESE,105,0.0,1.0,35,0.00,,,0.00,WeatherTracker,2013-04-20 02:48:00,
2013-04-19 19:53:00,58.0,31.2,30.08,ESE,106,0.0,1.0,36,0.00,,,0.00,WeatherTracker,2013-04-20 02:53:00,
2013-04-19 19:59:00,57.1,31.1,30.09,NE,40,0.0,1.0,37,0.00,,,0.00,WeatherTracker,2013-04-20 02:59:00,
2013-04-19 20:04:00,55.9,30.0,30.09,North,360,0.0,0.0,37,0.00,,,0.00,WeatherTracker,2013-04-20 03:04:00,
2013-04-19 20:09:00,56.0,30.1,30.09,NNW,342,1.0,1.0,37,0.00,,,0.00,WeatherTracker,2013-04-20 03:09:00,
2013-04-19 20:14:00,55.6,29.7,30.09,NNE,18,0.0,1.0,37,0.00,,,0.00,WeatherTracker,2013-04-20 03:14:00,
2013-04-19 20:19:00,55.9,29.3,30.09,North,11,0.0,1.0,36,0.00,,,0.00,WeatherTracker,2013-04-20 03:19:00,
2013-04-19 20:24:00,55.3,28.8,30.08,NNE,24,0.0,1.0,36,0.00,,,0.00,WeatherTracker,2013-04-20 03:24:00,
2013-04-19 20:29:00,55.8,28.6,30.08,NNW,338,3.0,3.0,35,0.00,,,0.00,WeatherTracker,2013-04-20 03:29:00,
2013-04-19 20:34:00,55.9,29.3,30.08,North,5,1.0,6.0,36,0.00,,,0.00,WeatherTracker,2013-04-20 03:34:00,
2013-04-19 20:39:00,55.8,29.3,30.08,North,5,2.0,6.0,36,0.00,,,0.00,WeatherTracker,2013-04-20 03:39:00,
2013-04-19 20:44:00,55.7,29.8,30.08,NNE,22,0.0,4.0,37,0.00,,,0.00,WeatherTracker,2013-04-20 03:44:00,
2013-04-19 20:49:00,55.8,29.3,30.09,NNE,21,0.0,4.0,36,0.00,,,0.00,WeatherTracker,2013-04-20 03:49:00,
2013-04-19 20:54:00,55.8,29.9,30.09,NNE,22,0.0,11.0,37,0.00,,,0.00,WeatherTracker,2013-04-20 03:54:00,
2013-04-19 20:59:00,55.7,29.8,30.09,NNW,331,0.0,11.0,37,0.00,,,0.00,WeatherTracker,2013-04-20 03:59:00,
2013-04-19 21:01:00,55.7,29.8,30.09,NNE,29,0.0,3.0,37,0.00,,,0.00,WeatherTracker,2013-04-20 04:01:00,
2013-04-19 21:02:00,55.7,29.2,30.10,NNW,348,2.0,3.0,36,0.00,,,0.00,WeatherTracker,2013-04-20 04:02:00,
2013-04-19 21:07:00,55.7,29.8,30.10,NNW,330,0.0,3.0,37,0.00,,,0.00,WeatherTracker,2013-04-20 04:07:00,
2013-04-19 21:12:00,55.8,28.6,30.10,WNW,286,2.0,2.0,35,0.00,,,0.00,WeatherTracker,2013-04-20 04:12:00,
2013-04-19 21:17:00,56.1,28.8,30.10,NW,313,0.0,4.0,35,0.00,,,0.00,WeatherTracker,2013-04-20 04:17:00,
2013-04-19 21:22:00,55.9,28.7,30.10,West,269,0.0,4.0,35,0.00,,,0.00,WeatherTracker,2013-04-20 04:22:00,
2013-04-19 21:27:00,55.8,28.6,30.10,NW,309,2.0,2.0,35,0.00,,,0.00,WeatherTracker,2013-04-20 04:27:00,
2013-04-19 21:32:00,55.6,28.4,30.11,WSW,258,0.0,2.0,35,0.00,,,0.00,WeatherTracker,2013-04-20 04:32:00,
2013-04-19 21:37:00,55.2,28.0,30.10,South,175,0.0,2.0,35,0.00,,,0.00,WeatherTracker,2013-04-20 04:37:00,
2013-04-19 21:42:00,54.7,28.3,30.10,SSW,205,0.0,1.0,36,0.00,,,0.00,WeatherTracker,2013-04-20 04:42:00,
2013-04-19 21:47:00,54.5,28.8,30.10,SSW,205,0.0,1.0,37,0.00,,,0.00,WeatherTracker,2013-04-20 04:47:00,
2013-04-19 21:52:00,54.5,28.1,30.09,NNE,19,0.0,1.0,36,0.00,,,0.00,WeatherTracker,2013-04-20 04:52:00,
2013-04-19 21:58:00,54.4,27.3,30.10,WNW,292,0.0,1.0,35,0.00,,,0.00,WeatherTracker,2013-04-20 04:58:00,
2013-04-19 22:03:00,53.8,28.8,30.10,WSW,250,0.0,1.0,38,0.00,,,0.00,WeatherTracker,2013-04-20 05:03:00,
2013-04-19 22:08:00,53.8,29.4,30.10,NW,317,0.0,0.0,39,0.00,,,0.00,WeatherTracker,2013-04-20 05:08:00,
2013-04-19 22:13:00,53.3,29.6,30.10,NNW,334,0.0,0.0,40,0.00,,,0.00,WeatherTracker,2013-04-20 05:13:00,
2013-04-19 22:18:00,52.8,29.2,30.10,West,262,0.0,1.0,40,0.00,,,0.00,WeatherTracker,2013-04-20 05:18:00,
2013-04-19 22:23:00,51.8,29.4,30.10,WSW,238,0.0,1.0,42,0.00,,,0.00,WeatherTracker,2013-04-20 05:23:00,
2013-04-19 22:28:00,51.3,29.0,30.10,West,260,0.0,0.0,42,0.00,,,0.00,WeatherTracker,2013-04-20 05:28:00,
2013-04-19 22:33:00,50.5,29.4,30.10,WNW,289,0.0,0.0,44,0.00,,,0.00,WeatherTracker,2013-04-20 05:33:00,
2013-04-19 22:38:00,50.0,29.5,30.11,West,271,0.0,0.0,45,0.00,,,0.00,WeatherTracker,2013-04-20 05:38:00,
2013-04-19 22:43:00,50.0,30.0,30.11,West,271,0.0,0.0,46,0.00,,,0.00,WeatherTracker,2013-04-20 05:43:00,
2013-04-19 22:48:00,50.0,30.6,30.11,West,271,0.0,0.0,47,0.00,,,0.00,WeatherTracker,2013-04-20 05:48:00,
2013-04-19 22:53:00,49.3,28.9,30.11,West,271,0.0,0.0,45,0.00,,,0.00,WeatherTracker,2013-04-20 05:53:00,
2013-04-19 22:58:00,47.7,29.0,30.12,West,271,0.0,0.0,48,0.00,,,0.00,WeatherTracker,2013-04-20 05:58:00,
2013-04-19 23:03:00,46.6,28.5,30.12,West,271,0.0,0.0,49,0.00,,,0.00,WeatherTracker,2013-04-20 06:03:00,
2013-04-19 23:08:00,45.9,29.7,30.12,West,271,0.0,0.0,53,0.00,,,0.00,WeatherTracker,2013-04-20 06:08:00,
2013-04-19 23:13:00,45.6,29.0,30.12,West,271,0.0,0.0,52,0.00,,,0.00,WeatherTracker,2013-04-20 06:13:00,
2013-04-19 23:18:00,45.8,29.7,30.12,West,271,0.0,0.0,53,0.00,,,0.00,WeatherTracker,2013-04-20 06:18:00,
2013-04-19 23:23:00,45.0,28.4,30.12,West,271,0.0,0.0,52,0.00,,,0.00,WeatherTracker,2013-04-20 06:23:00,
2013-04-19 23:28:00,45.0,28.4,30.12,NW,306,0.0,0.0,52,0.00,,,0.00,WeatherTracker,2013-04-20 06:28:00,
2013-04-19 23:33:00,45.0,28.4,30.12,NW,306,0.0,0.0,52,0.00,,,0.00,WeatherTracker,2013-04-20 06:33:00,
2013-04-19 23:38:00,46.0,29.8,30.12,NW,306,0.0,0.0,53,0.00,,,0.00,WeatherTracker,2013-04-20 06:38:00,
2013-04-19 23:43:00,47.0,29.8,30.13,NW,306,0.0,0.0,51,0.00,,,0.00,WeatherTracker,2013-04-20 06:43:00,
2013-04-19 23:48:00,47.7,30.5,30.13,NW,306,0.0,0.0,51,0.00,,,0.00,WeatherTracker,2013-04-20 06:48:00,
2013-04-19 23:54:00,47.7,29.5,30.12,NW,316,0.0,0.0,49,0.00,,,0.00,WeatherTracker,2013-04-20 06:54:00,
2013-04-19 23:59:00,46.2,29.1,30.12,NNW,327,0.0,1.0,51,0.00,,,0.00,WeatherTracker,2013-04-20 06:59:00,